createdAt,value
2019-04-11T00:02:03.172Z,14.13
2019-04-11T00:04:32.318Z,12.73
2019-04-11T00:07:01.457Z,12.93
2019-04-11T00:09:30.549Z,12.80
2019-04-11T00:11:59.974Z,12.03
2019-04-11T00:14:29.659Z,12.37
2019-04-11T00:16:58.569Z,12.68
2019-04-11T00:19:27.471Z,13.98
2019-04-11T00:21:57.224Z,11.70
2019-04-11T00:24:27.158Z,11.10
2019-04-11T00:26:57.002Z,14.05
2019-04-11T00:29:26.098Z,13.40
2019-04-11T00:31:55.024Z,12.15
2019-04-11T00:34:24.131Z,12.73
2019-04-11T00:36:53.275Z,12.25
2019-04-11T00:39:22.163Z,11.60
2019-04-11T00:41:52.327Z,12.68
2019-04-11T00:44:21.211Z,14.45
2019-04-11T00:46:50.944Z,15.68
2019-04-11T00:49:19.810Z,17.07
2019-04-11T00:51:49.827Z,12.03
2019-04-11T00:54:18.755Z,13.58
2019-04-11T00:56:48.443Z,12.50
2019-04-11T00:59:18.281Z,12.60
2019-04-11T01:01:47.210Z,14.68
2019-04-11T01:04:16.065Z,13.83
2019-04-11T01:06:44.821Z,15.20
2019-04-11T01:09:13.791Z,13.78
2019-04-11T01:11:43.690Z,12.10
2019-04-11T01:14:13.242Z,13.35
2019-04-11T01:16:54.104Z,13.93
2019-04-11T01:19:24.679Z,13.65
2019-04-11T01:21:54.986Z,13.13
2019-04-11T01:24:24.139Z,15.18
2019-04-11T01:26:53.857Z,13.65
2019-04-11T01:29:23.065Z,12.55
2019-04-11T01:31:55.536Z,12.58
2019-04-11T01:34:24.565Z,11.45
2019-04-11T01:36:53.508Z,17.60
2019-04-11T01:39:35.307Z,14.43
2019-04-11T01:42:04.496Z,13.03
2019-04-11T01:44:33.616Z,12.63
2019-04-11T01:47:02.915Z,14.25
2019-04-11T01:49:32.358Z,14.30
2019-04-11T01:52:02.437Z,14.58
2019-04-11T01:54:32.216Z,15.05
2019-04-11T01:57:01.396Z,13.30
2019-04-11T01:59:31.261Z,14.30
2019-04-11T02:02:22.393Z,14.10
2019-04-11T02:04:56.486Z,13.28
2019-04-11T02:07:25.471Z,13.50
2019-04-11T02:09:54.767Z,15.68
2019-04-11T02:12:23.736Z,12.98
2019-04-11T02:14:52.640Z,14.38
2019-04-11T02:17:22.314Z,15.68
2019-04-11T02:19:52.237Z,16.50
2019-04-11T02:22:38.239Z,16.15
2019-04-11T02:25:28.242Z,16.12
2019-04-11T02:27:58.692Z,13.90
2019-04-11T02:30:28.431Z,15.58
2019-04-11T02:33:00.238Z,14.28
2019-04-11T02:35:30.920Z,15.15
2019-04-11T02:38:00.317Z,14.83
2019-04-11T02:40:30.054Z,16.45
2019-04-11T02:43:00.906Z,13.60
2019-04-11T02:45:42.660Z,17.75
2019-04-11T02:48:03.770Z,16.05
2019-04-11T02:50:34.291Z,16.05
2019-04-11T02:53:05.021Z,19.00
2019-04-11T02:55:35.812Z,17.82
2019-04-11T02:58:06.192Z,16.30
2019-04-11T03:00:37.503Z,13.68
2019-04-11T03:03:10.286Z,16.23
2019-04-11T03:05:39.641Z,16.23
2019-04-11T03:08:13.628Z,16.02
2019-04-11T03:10:40.904Z,15.35
2019-04-11T03:13:10.509Z,17.05
2019-04-11T03:15:56.190Z,17.07
2019-04-11T03:18:12.540Z,15.70
2019-04-11T03:20:48.430Z,15.00
2019-04-11T03:23:14.578Z,16.60
2019-04-11T03:25:42.873Z,17.55
2019-04-11T03:28:18.310Z,16.30
2019-04-11T03:31:06.828Z,19.52
2019-04-11T03:36:41.887Z,17.75
2019-04-11T03:38:38.579Z,18.20
2019-04-11T03:41:04.297Z,18.37
2019-04-11T03:43:30.289Z,17.45
2019-04-11T03:46:03.898Z,16.62
2019-04-11T03:48:33.452Z,16.07
2019-04-11T03:50:52.356Z,18.65
2019-04-11T03:53:41.040Z,18.05
2019-04-11T03:56:29.499Z,19.87
2019-04-11T03:59:19.562Z,18.35
2019-04-11T04:02:08.511Z,18.00
2019-04-11T04:07:46.537Z,15.65
2019-04-11T04:20:15.174Z,16.52
2019-04-11T04:23:22.623Z,17.85
2019-04-11T04:29:19.361Z,19.80
2019-04-11T04:32:08.558Z,24.70
2019-04-11T04:34:58.865Z,19.30
2019-04-11T04:37:49.756Z,16.80
2019-04-11T04:41:13.516Z,20.75
2019-04-11T04:43:50.241Z,19.48
2019-04-11T04:49:25.277Z,20.90
2019-04-11T04:52:07.728Z,22.42
2019-04-11T04:54:49.109Z,21.57
2019-04-11T04:57:31.814Z,23.57
2019-04-11T05:00:14.249Z,22.75
2019-04-11T05:02:57.095Z,24.55
2019-04-11T05:05:38.933Z,20.45
2019-04-11T05:08:20.722Z,23.00
2019-04-11T05:11:02.206Z,26.33
2019-04-11T05:13:45.285Z,23.75
2019-04-11T05:16:25.613Z,18.92
2019-04-11T05:19:07.053Z,23.77
2019-04-11T05:24:18.964Z,20.00
2019-04-11T05:26:48.166Z,20.60
2019-04-11T05:29:17.449Z,22.70
2019-04-11T05:32:05.642Z,20.20
2019-04-11T05:34:53.910Z,20.10
2019-04-11T05:37:22.947Z,22.90
2019-04-11T05:40:11.043Z,19.55
2019-04-11T05:46:23.365Z,16.40
2019-04-11T05:49:16.840Z,17.55
2019-04-11T05:55:15.942Z,17.40
2019-04-11T05:58:08.555Z,22.32
2019-04-11T06:03:55.511Z,18.12
2019-04-11T06:06:52.814Z,18.52
2019-04-11T06:09:44.471Z,17.95
2019-04-11T06:12:52.620Z,19.52
2019-04-11T06:15:44.321Z,17.23
2019-04-11T06:18:52.408Z,16.67
2019-04-11T06:22:00.273Z,16.15
2019-04-11T06:25:09.193Z,22.32
2019-04-11T06:28:02.134Z,22.65
2019-04-11T06:31:10.967Z,17.57
2019-04-11T06:34:02.184Z,15.40
2019-04-11T06:37:30.565Z,19.40
2019-04-11T06:43:44.514Z,18.23
2019-04-11T06:49:58.679Z,14.60
2019-04-11T06:52:41.207Z,12.98
2019-04-11T06:55:40.908Z,13.90
2019-04-11T06:58:25.676Z,15.05
2019-04-11T07:01:10.190Z,13.75
2019-04-11T07:03:53.895Z,15.43
2019-04-11T07:06:37.767Z,13.08
2019-04-11T07:09:37.616Z,13.95
2019-04-11T07:12:28.637Z,10.93
2019-04-11T07:15:31.445Z,11.70
2019-04-11T07:21:29.423Z,12.23
2019-04-11T07:24:30.374Z,13.05
2019-04-11T07:27:15.912Z,12.25
2019-04-11T07:30:19.419Z,12.82
2019-04-11T07:33:16.012Z,11.55
2019-04-11T07:36:22.753Z,11.22
2019-04-11T07:39:14.652Z,11.50
2019-04-11T07:42:18.117Z,12.28
2019-04-11T07:45:01.468Z,9.88
2019-04-11T07:47:48.281Z,13.20
2019-04-11T07:50:31.185Z,10.00
2019-04-11T07:53:13.491Z,11.03
2019-04-11T07:55:55.404Z,10.63
2019-04-11T07:58:46.396Z,10.00
2019-04-11T08:04:49.664Z,9.63
2019-04-11T08:10:55.007Z,7.15
2019-04-11T08:17:00.104Z,6.85
2019-04-11T08:20:00.794Z,6.55
2019-04-11T08:22:47.694Z,7.42
2019-04-11T08:25:48.252Z,7.20
2019-04-11T08:28:30.979Z,9.08
2019-04-11T08:31:31.166Z,8.75
2019-04-11T08:34:13.268Z,6.83
2019-04-11T08:37:19.378Z,7.80
2019-04-11T08:40:01.711Z,5.97
2019-04-11T08:48:30.829Z,7.10
2019-04-11T08:51:04.938Z,6.25
2019-04-11T08:54:13.268Z,6.80
2019-04-11T08:57:03.261Z,7.17
2019-04-11T09:00:10.920Z,6.33
2019-04-11T09:03:05.049Z,7.35
2019-04-11T09:06:13.109Z,6.67
2019-04-11T09:09:20.918Z,5.80
2019-04-11T09:12:12.113Z,6.33
2019-04-11T09:15:21.105Z,8.53
2019-04-11T09:18:12.525Z,7.00
2019-04-11T09:21:20.271Z,7.30
2019-04-11T09:24:28.373Z,7.50
2019-04-11T09:27:36.507Z,7.00
2019-04-11T09:30:43.812Z,7.10
2019-04-11T09:33:51.281Z,6.25
2019-04-11T09:40:01.750Z,6.85
2019-04-11T09:45:59.759Z,6.83
2019-04-11T09:52:00.489Z,7.58
2019-04-11T09:55:00.963Z,7.85
2019-04-11T09:57:41.959Z,9.15
2019-04-11T10:00:26.693Z,7.80
2019-04-11T10:03:34.557Z,7.62
2019-04-11T10:06:38.761Z,6.75
2019-04-11T10:09:08.735Z,9.58
2019-04-11T10:12:12.227Z,8.50
2019-04-11T10:14:43.968Z,9.75
2019-04-11T10:17:31.760Z,8.85
2019-04-11T10:20:04.706Z,7.30
2019-04-11T10:23:01.431Z,7.08
2019-04-11T10:25:32.443Z,7.30
2019-04-11T10:28:29.871Z,7.67
2019-04-11T10:31:04.287Z,9.25
2019-04-11T10:33:53.096Z,8.28
2019-04-11T10:36:25.230Z,10.08
2019-04-11T10:39:13.474Z,9.30
2019-04-11T10:41:44.521Z,9.68
2019-04-11T10:44:16.070Z,8.45
2019-04-11T10:46:49.539Z,10.05
2019-04-11T10:49:36.641Z,8.18
2019-04-11T10:52:14.117Z,7.85
2019-04-11T10:54:45.110Z,8.00
2019-04-11T10:57:32.187Z,9.30
2019-04-11T11:00:03.125Z,7.75
2019-04-11T11:02:49.197Z,8.78
2019-04-11T11:05:19.475Z,8.68
2019-04-11T11:07:48.882Z,8.08
2019-04-11T11:10:21.993Z,7.05
2019-04-11T11:13:16.078Z,6.97
2019-04-11T11:15:56.646Z,8.05
2019-04-11T11:19:15.647Z,9.35
2019-04-11T11:21:19.692Z,7.65
2019-04-11T11:24:08.674Z,8.03
2019-04-11T11:26:39.025Z,9.13
2019-04-11T11:29:45.606Z,7.97
2019-04-11T11:32:29.957Z,8.23
2019-04-11T11:35:09.109Z,7.85
2019-04-11T11:37:57.561Z,7.75
2019-04-11T11:41:04.305Z,7.47
2019-04-11T11:43:35.038Z,7.65
2019-04-11T11:46:25.604Z,6.83
2019-04-11T11:49:05.822Z,7.47
2019-04-11T11:52:09.206Z,6.95
2019-04-11T11:54:51.571Z,7.80
2019-04-11T11:57:24.892Z,7.33
2019-04-11T11:59:58.746Z,7.50
2019-04-11T12:02:32.742Z,7.62
2019-04-11T12:05:20.629Z,8.90
2019-04-11T12:08:16.562Z,7.28
2019-04-11T12:10:54.556Z,7.90
2019-04-11T12:13:45.688Z,6.80
2019-04-11T12:16:20.705Z,8.78
2019-04-11T12:19:05.131Z,7.30
2019-04-11T12:21:34.732Z,7.70
2019-04-11T12:24:32.382Z,7.12
2019-04-11T12:27:20.572Z,7.85
2019-04-11T12:30:09.074Z,8.50
2019-04-11T12:32:41.700Z,7.20
2019-04-11T12:35:35.990Z,6.72
2019-04-11T12:38:10.631Z,8.38
2019-04-11T12:40:57.490Z,7.58
2019-04-11T12:43:35.735Z,6.67
2019-04-11T12:46:30.286Z,8.25
2019-04-11T12:49:07.236Z,8.98
2019-04-11T12:51:55.195Z,8.03
2019-04-11T12:54:27.955Z,8.55
2019-04-11T12:57:14.589Z,9.63
2019-04-11T12:59:43.904Z,7.65
2019-04-11T13:02:39.989Z,7.47
2019-04-11T13:05:10.815Z,7.60
2019-04-11T13:07:59.850Z,7.35
2019-04-11T13:10:33.799Z,6.75
2019-04-11T13:13:18.979Z,6.67
2019-04-11T13:16:12.243Z,7.70
2019-04-11T13:18:53.615Z,8.53
2019-04-11T13:21:50.892Z,8.65
2019-04-11T13:24:39.631Z,7.62
2019-04-11T13:27:16.819Z,6.35
2019-04-11T13:30:04.803Z,7.12
2019-04-11T13:32:56.635Z,7.15
2019-04-11T13:35:42.961Z,7.08
2019-04-11T13:38:15.355Z,6.85
2019-04-11T13:41:03.200Z,6.90
2019-04-11T13:43:39.970Z,8.15
2019-04-11T13:46:46.050Z,7.60
2019-04-11T13:49:46.393Z,6.45
2019-04-11T13:52:34.559Z,6.47
2019-04-11T13:55:08.509Z,7.95
2019-04-11T13:57:56.489Z,6.12
2019-04-11T14:00:44.032Z,5.85
2019-04-11T14:03:44.081Z,5.97
2019-04-11T14:06:31.020Z,5.70
2019-04-11T14:09:13.288Z,5.70
2019-04-11T14:11:49.675Z,7.20
2019-04-11T14:14:35.868Z,6.45
2019-04-11T14:17:13.847Z,6.40
2019-04-11T14:20:13.800Z,6.42
2019-04-11T14:23:15.024Z,7.62
2019-04-11T14:26:14.281Z,5.78
2019-04-11T14:28:49.169Z,6.45
2019-04-11T14:31:38.237Z,6.00
2019-04-11T14:34:13.401Z,11.95
2019-04-11T14:36:49.693Z,5.95
2019-04-11T14:39:19.298Z,5.22
2019-04-11T14:42:06.286Z,5.85
2019-04-11T14:44:35.684Z,6.25
2019-04-11T14:47:22.483Z,6.10
2019-04-11T14:49:55.870Z,4.87
2019-04-11T14:52:47.256Z,5.12
2019-04-11T14:55:18.999Z,9.85
2019-04-11T14:58:06.894Z,5.45
2019-04-11T15:00:38.465Z,5.72
2019-04-11T15:03:32.540Z,5.50
2019-04-11T15:06:14.574Z,5.03
2019-04-11T15:09:00.285Z,5.22
2019-04-11T15:11:47.172Z,4.97
2019-04-11T15:14:23.631Z,6.40
2019-04-11T15:17:29.808Z,8.65
2019-04-11T15:20:33.783Z,4.53
2019-04-11T15:23:06.999Z,6.67
2019-04-11T15:25:55.850Z,5.12
2019-04-11T15:28:44.008Z,4.70
2019-04-11T15:31:25.984Z,4.65
2019-04-11T15:34:17.785Z,5.05
2019-04-11T15:37:08.697Z,4.90
2019-04-11T15:39:55.768Z,4.55
2019-04-11T15:42:49.610Z,4.65
2019-04-11T15:45:49.666Z,4.67
2019-04-11T15:48:36.327Z,4.50
2019-04-11T15:51:18.752Z,4.40
2019-04-11T15:54:01.671Z,4.70
2019-04-11T15:56:47.479Z,5.58
2019-04-11T15:59:51.345Z,4.22
2019-04-11T16:02:58.894Z,4.78
2019-04-11T16:06:05.997Z,4.00
2019-04-11T16:08:56.567Z,4.70
2019-04-11T16:12:03.736Z,5.15
2019-04-11T16:18:15.605Z,4.28
2019-04-11T16:24:18.172Z,5.92
2019-04-11T16:27:25.388Z,3.52
2019-04-11T16:30:14.584Z,5.72
2019-04-11T16:33:22.052Z,4.25
2019-04-11T16:36:29.208Z,3.77
2019-04-11T16:39:36.072Z,4.53
2019-04-11T16:42:43.188Z,4.53
2019-04-11T16:45:50.403Z,4.10
2019-04-11T16:48:38.407Z,5.65
2019-04-11T16:51:31.138Z,4.05
2019-04-11T16:54:16.161Z,4.85
2019-04-11T16:56:57.286Z,4.53
2019-04-11T16:59:38.364Z,4.42
2019-04-11T17:02:21.885Z,6.12
2019-04-11T17:05:02.575Z,4.95
2019-04-11T17:08:02.499Z,4.00
2019-04-11T17:10:50.610Z,4.40
2019-04-11T17:13:38.620Z,4.62
2019-04-11T17:16:29.898Z,5.30
2019-04-11T17:19:16.360Z,3.60
2019-04-11T17:22:04.395Z,5.65
2019-04-11T17:24:52.420Z,4.22
2019-04-11T17:27:40.456Z,5.08
2019-04-11T17:36:15.408Z,5.90
2019-04-11T17:42:14.065Z,4.10
2019-04-11T17:45:02.551Z,5.40
2019-04-11T17:47:50.913Z,3.87
2019-04-11T17:50:39.009Z,3.90
2019-04-11T17:53:27.052Z,4.50
2019-04-11T17:56:15.180Z,4.25
2019-04-11T17:59:03.251Z,16.52
2019-04-11T18:01:51.248Z,6.65
2019-04-11T18:10:40.619Z,5.30
2019-04-11T18:13:31.424Z,4.28
2019-04-11T18:16:18.749Z,4.10
2019-04-11T18:19:09.704Z,4.40
2019-04-11T18:22:07.226Z,6.95
2019-04-11T18:24:49.839Z,7.08
2019-04-11T18:27:37.089Z,6.15
2019-04-11T18:30:27.969Z,8.48
2019-04-11T18:33:15.996Z,5.00
2019-04-11T18:39:11.335Z,5.03
2019-04-11T18:41:59.610Z,5.53
2019-04-11T18:44:47.984Z,4.95
2019-04-11T18:47:36.142Z,4.00
2019-04-11T18:50:24.158Z,7.08
2019-04-11T18:53:12.191Z,4.40
2019-04-11T18:56:01.690Z,5.25
2019-04-11T18:58:42.728Z,4.50
2019-04-11T19:01:23.334Z,7.55
2019-04-11T19:04:04.049Z,4.53
2019-04-11T19:06:44.897Z,4.72
2019-04-11T19:09:25.755Z,4.70
2019-04-11T19:12:08.216Z,4.40
2019-04-11T19:14:48.756Z,4.37
2019-04-11T19:17:30.474Z,4.25
2019-04-11T19:20:11.103Z,4.58
2019-04-11T19:22:51.911Z,7.17
2019-04-11T19:25:34.219Z,4.78
2019-04-11T19:28:16.402Z,7.83
2019-04-11T19:30:57.786Z,4.35
2019-04-11T19:33:40.090Z,32.55
2019-04-11T19:36:21.188Z,4.15
2019-04-11T19:39:01.683Z,3.55
2019-04-11T19:41:43.128Z,5.72
2019-04-11T19:44:28.188Z,4.22
2019-04-11T19:47:02.566Z,3.80
2019-04-11T19:49:51.110Z,3.90
2019-04-11T19:52:45.355Z,3.80
2019-04-11T19:58:28.323Z,3.40
2019-04-11T20:01:08.720Z,4.60
2019-04-11T20:03:53.817Z,5.30
2019-04-11T20:06:32.404Z,4.05
2019-04-11T20:09:13.623Z,4.10
2019-04-11T20:11:54.516Z,3.98
2019-04-11T20:14:35.499Z,3.85
2019-04-11T20:17:18.739Z,3.72
2019-04-11T20:20:01.558Z,5.30
2019-04-11T20:22:42.329Z,4.17
2019-04-11T20:25:23.423Z,3.80
2019-04-11T20:28:04.608Z,5.08
2019-04-11T20:30:33.444Z,4.12
2019-04-11T20:33:27.041Z,4.10
2019-04-11T20:39:06.317Z,3.37
2019-04-11T20:41:54.430Z,3.20
2019-04-11T20:44:42.999Z,3.98
2019-04-11T20:47:31.040Z,3.55
2019-04-11T20:50:19.191Z,3.25
2019-04-11T20:53:12.609Z,4.05
2019-04-11T20:55:39.399Z,3.92
2019-04-11T20:58:27.222Z,3.98
2019-04-11T21:01:03.009Z,3.52
2019-04-11T21:03:44.236Z,4.12
2019-04-11T21:06:24.896Z,3.40
2019-04-11T21:09:09.002Z,3.62
2019-04-11T21:11:49.835Z,3.50
2019-04-11T21:14:30.612Z,3.98
2019-04-11T21:17:11.626Z,4.30
2019-04-11T21:19:53.246Z,4.05
2019-04-11T21:22:34.384Z,6.90
2019-04-11T21:25:15.339Z,4.85
2019-04-11T21:27:56.779Z,4.10
2019-04-11T21:30:38.519Z,4.28
2019-04-11T21:33:19.103Z,5.25
2019-04-11T21:36:01.434Z,4.80
2019-04-11T21:38:42.393Z,4.62
2019-04-11T21:41:23.176Z,3.70
2019-04-11T21:44:05.875Z,4.25
2019-04-11T21:46:49.216Z,4.03
2019-04-11T21:49:27.905Z,4.45
2019-04-11T21:52:16.122Z,4.83
2019-04-11T21:55:04.372Z,4.35
2019-04-11T21:57:48.439Z,5.80
2019-04-11T22:00:29.737Z,5.15
2019-04-11T22:03:11.058Z,5.08
2019-04-11T22:05:51.927Z,4.47
2019-04-11T22:08:34.520Z,4.80
2019-04-11T22:11:15.452Z,5.08
2019-04-11T22:13:56.216Z,4.72
2019-04-11T22:16:37.523Z,6.37
2019-04-11T22:19:17.968Z,3.95
2019-04-11T22:21:58.765Z,4.60
2019-04-11T22:24:39.680Z,3.90
2019-04-11T22:27:22.279Z,5.03
2019-04-11T22:30:03.232Z,4.42
2019-04-11T22:32:32.350Z,4.72
2019-04-11T22:35:01.415Z,5.33
2019-04-11T22:37:30.664Z,4.97
2019-04-11T22:40:01.753Z,3.77
2019-04-11T22:42:30.074Z,4.10
2019-04-11T22:44:58.844Z,3.80
2019-04-11T22:47:27.952Z,4.80
2019-04-11T22:49:56.784Z,4.40
2019-04-11T22:52:25.811Z,4.30
2019-04-11T22:54:54.626Z,4.20
2019-04-11T22:57:23.723Z,3.72
2019-04-11T22:59:52.575Z,4.03
2019-04-11T23:02:28.439Z,4.40
2019-04-11T23:04:57.216Z,4.20
2019-04-11T23:07:26.319Z,6.10
2019-04-11T23:09:55.125Z,3.65
2019-04-11T23:12:23.891Z,3.50
2019-04-11T23:14:52.618Z,4.08
2019-04-11T23:17:21.464Z,3.40
2019-04-11T23:19:50.560Z,4.62
2019-04-11T23:22:19.700Z,3.80
2019-04-11T23:24:48.463Z,3.92
2019-04-11T23:27:17.571Z,4.15
2019-04-11T23:29:47.128Z,3.12
2019-04-11T23:32:18.821Z,3.52
2019-04-11T23:34:47.366Z,3.55
2019-04-11T23:37:16.211Z,3.10
2019-04-11T23:39:45.307Z,4.05
2019-04-11T23:42:14.093Z,3.87
2019-04-11T23:44:42.930Z,3.75
2019-04-11T23:47:11.738Z,3.67
2019-04-11T23:49:40.509Z,5.00
2019-04-11T23:52:09.292Z,4.20
2019-04-11T23:54:38.450Z,4.30
2019-04-11T23:57:07.255Z,4.12
2019-04-11T23:59:36.337Z,3.70
